createdAt,value
2022-10-11T00:01:22.026Z,8.37
2022-10-11T00:04:03.287Z,7.30
2022-10-11T00:06:44.780Z,7.37
2022-10-11T00:09:24.474Z,8.20
2022-10-11T00:12:05.106Z,8.87
2022-10-11T00:14:45.770Z,7.67
2022-10-11T00:17:25.572Z,7.93
2022-10-11T00:20:06.133Z,8.70
2022-10-11T00:22:46.909Z,9.77
2022-10-11T00:25:28.531Z,9.30
2022-10-11T00:28:09.908Z,8.43
2022-10-11T00:30:51.107Z,7.77
2022-10-11T00:33:30.944Z,8.30
2022-10-11T00:36:14.486Z,7.40
2022-10-11T00:38:55.579Z,8.53
2022-10-11T00:41:36.884Z,8.40
2022-10-11T00:44:20.989Z,9.27
2022-10-11T00:47:04.428Z,8.37
2022-10-11T00:49:50.145Z,8.93
2022-10-11T00:52:33.608Z,9.10
2022-10-11T00:55:17.711Z,9.10
2022-10-11T00:58:19.901Z,8.20
2022-10-11T01:01:00.382Z,8.80
2022-10-11T01:03:41.768Z,8.90
2022-10-11T01:06:21.731Z,9.80
2022-10-11T01:09:03.203Z,8.83
2022-10-11T01:11:45.400Z,9.00
2022-10-11T01:14:49.320Z,8.80
2022-10-11T01:17:37.863Z,8.10
2022-10-11T01:20:39.126Z,8.57
2022-10-11T01:23:46.414Z,8.33
2022-10-11T01:27:19.413Z,10.00
2022-10-11T01:30:08.721Z,8.70
2022-10-11T01:32:56.533Z,9.30
2022-10-11T01:35:42.540Z,9.30
2022-10-11T01:38:31.466Z,9.80
2022-10-11T01:41:17.824Z,9.17
2022-10-11T01:44:01.629Z,9.77
2022-10-11T01:46:42.117Z,8.83
2022-10-11T01:49:25.768Z,9.87
2022-10-11T01:52:08.066Z,9.20
2022-10-11T01:55:10.122Z,8.60
2022-10-11T01:58:08.351Z,8.63
2022-10-11T02:00:56.462Z,10.27
2022-10-11T02:03:44.907Z,8.57
2022-10-11T02:06:33.477Z,8.83
2022-10-11T02:09:17.639Z,10.20
2022-10-11T02:12:03.502Z,9.10
2022-10-11T02:14:51.831Z,10.13
2022-10-11T02:17:36.635Z,10.23
2022-10-11T02:20:21.971Z,9.97
2022-10-11T02:23:09.380Z,10.17
2022-10-11T02:25:54.548Z,10.40
2022-10-11T02:28:40.386Z,9.83
2022-10-11T02:31:21.678Z,9.60
2022-10-11T02:34:09.902Z,10.50
2022-10-11T02:36:59.484Z,10.30
2022-10-11T02:39:44.495Z,9.50
2022-10-11T02:42:30.781Z,8.70
2022-10-11T02:45:17.148Z,9.90
2022-10-11T02:47:58.779Z,9.27
2022-10-11T02:50:40.680Z,10.50
2022-10-11T02:53:22.716Z,12.43
2022-10-11T02:56:03.752Z,10.40
2022-10-11T02:58:44.830Z,12.57
2022-10-11T03:01:24.742Z,11.57
2022-10-11T03:04:04.491Z,11.70
2022-10-11T03:06:44.293Z,11.70
2022-10-11T03:09:24.141Z,12.27
2022-10-11T03:12:04.361Z,11.43
2022-10-11T03:14:45.385Z,12.07
2022-10-11T03:17:42.599Z,10.73
2022-10-11T03:20:22.897Z,13.50
2022-10-11T03:23:04.066Z,13.20
2022-10-11T03:25:45.692Z,13.17
2022-10-11T03:28:26.953Z,12.53
2022-10-11T03:31:08.447Z,13.33
2022-10-11T03:33:49.704Z,13.90
2022-10-11T03:36:29.618Z,14.87
2022-10-11T03:39:09.596Z,15.50
2022-10-11T03:41:50.836Z,15.40
2022-10-11T03:44:30.613Z,17.50
2022-10-11T03:47:10.857Z,15.90
2022-10-11T03:49:51.815Z,16.67
2022-10-11T03:52:31.930Z,16.80
2022-10-11T03:55:13.162Z,16.57
2022-10-11T03:57:54.683Z,18.37
2022-10-11T04:00:36.594Z,19.27
2022-10-11T04:03:17.348Z,16.87
2022-10-11T04:05:57.206Z,19.90
2022-10-11T04:08:43.540Z,17.63
2022-10-11T04:11:24.868Z,19.30
2022-10-11T04:14:05.419Z,19.50
2022-10-11T04:16:46.511Z,19.87
2022-10-11T04:19:27.752Z,21.57
2022-10-11T04:22:08.998Z,22.50
2022-10-11T04:24:48.744Z,21.90
2022-10-11T04:27:40.734Z,22.07
2022-10-11T04:30:21.980Z,20.70
2022-10-11T04:33:03.294Z,21.10
2022-10-11T04:35:56.161Z,21.53
2022-10-11T04:38:36.345Z,22.70
2022-10-11T04:41:18.054Z,21.43
2022-10-11T04:43:59.094Z,20.43
2022-10-11T04:46:38.943Z,22.50
2022-10-11T04:49:18.728Z,23.70
2022-10-11T04:51:58.572Z,23.57
2022-10-11T04:54:38.405Z,25.27
2022-10-11T04:57:18.202Z,22.20
2022-10-11T04:59:58.096Z,24.20
2022-10-11T05:02:39.747Z,25.30
2022-10-11T05:05:20.936Z,23.43
2022-10-11T05:08:02.276Z,24.50
2022-10-11T05:10:42.359Z,23.20
2022-10-11T05:13:23.553Z,26.43
2022-10-11T05:16:08.225Z,25.10
2022-10-11T05:18:51.240Z,24.70
2022-10-11T05:21:31.817Z,23.70
2022-10-11T05:24:12.680Z,24.70
2022-10-11T05:26:53.854Z,23.37
2022-10-11T05:29:35.930Z,23.67
2022-10-11T05:32:16.705Z,24.70
2022-10-11T05:34:56.569Z,22.10
2022-10-11T05:37:36.354Z,22.00
2022-10-11T05:40:16.300Z,21.30
2022-10-11T05:43:09.566Z,23.50
2022-10-11T05:45:50.960Z,21.97
2022-10-11T05:48:32.231Z,21.50
2022-10-11T05:51:13.191Z,21.77
2022-10-11T05:53:53.459Z,22.10
2022-10-11T05:56:35.012Z,22.53
2022-10-11T05:59:16.309Z,20.17
2022-10-11T06:01:57.697Z,22.27
2022-10-11T06:04:38.799Z,19.17
2022-10-11T06:07:18.973Z,20.83
2022-10-11T06:10:00.306Z,18.63
2022-10-11T06:12:40.290Z,18.83
2022-10-11T06:15:35.944Z,20.20
2022-10-11T06:18:33.388Z,19.80
2022-10-11T06:21:39.038Z,18.97
2022-10-11T06:24:37.557Z,18.33
2022-10-11T06:27:40.229Z,19.30
2022-10-11T06:30:39.736Z,18.67
2022-10-11T06:33:43.200Z,18.17
2022-10-11T06:36:53.257Z,19.17
2022-10-11T06:40:02.096Z,20.40
2022-10-11T06:43:00.584Z,16.63
2022-10-11T06:46:02.106Z,17.83
2022-10-11T06:48:57.301Z,18.03
2022-10-11T06:51:52.472Z,18.17
2022-10-11T06:54:50.295Z,18.23
2022-10-11T06:57:47.561Z,17.90
2022-10-11T07:00:45.497Z,17.40
2022-10-11T07:03:53.776Z,17.90
2022-10-11T07:06:47.566Z,17.23
2022-10-11T07:09:59.809Z,18.63
2022-10-11T07:13:16.985Z,17.83
2022-10-11T07:16:15.458Z,16.97
2022-10-11T07:19:15.107Z,18.50
2022-10-11T07:22:21.931Z,17.00
2022-10-11T07:25:22.819Z,18.20
2022-10-11T07:28:17.908Z,15.97
2022-10-11T07:31:14.387Z,18.00
2022-10-11T07:34:09.201Z,17.47
2022-10-11T07:37:06.947Z,17.90
2022-10-11T07:40:00.815Z,15.30
2022-10-11T07:42:56.866Z,17.20
2022-10-11T07:46:04.413Z,16.77
2022-10-11T07:49:17.500Z,15.83
2022-10-11T07:52:11.287Z,15.70
2022-10-11T07:55:17.805Z,15.10
2022-10-11T07:58:14.308Z,14.47
2022-10-11T08:01:09.208Z,16.20
2022-10-11T08:04:04.146Z,16.47
2022-10-11T08:07:16.450Z,15.67
2022-10-11T08:10:13.831Z,16.23
2022-10-11T08:13:22.691Z,15.27
2022-10-11T08:16:22.560Z,16.30
2022-10-11T08:19:22.723Z,15.90
2022-10-11T08:22:26.350Z,14.73
2022-10-11T08:25:39.637Z,16.43
2022-10-11T08:28:37.915Z,15.30
2022-10-11T08:31:32.899Z,13.47
2022-10-11T08:34:40.042Z,14.10
2022-10-11T08:37:50.054Z,16.07
2022-10-11T08:40:52.792Z,15.70
2022-10-11T08:43:56.471Z,15.13
2022-10-11T08:47:00.419Z,15.73
2022-10-11T08:49:55.817Z,15.90
2022-10-11T08:53:25.441Z,15.37
2022-10-11T08:56:21.395Z,16.27
2022-10-11T08:58:56.041Z,15.60
2022-10-11T09:01:27.161Z,15.67
2022-10-11T09:03:57.456Z,15.10
2022-10-11T09:06:41.399Z,15.23
2022-10-11T09:09:32.552Z,15.83
2022-10-11T09:12:14.703Z,16.47
2022-10-11T09:15:10.052Z,15.17
2022-10-11T09:17:55.825Z,17.80
2022-10-11T09:20:52.954Z,16.60
2022-10-11T09:23:42.402Z,16.67
2022-10-11T09:26:15.490Z,16.80
2022-10-11T09:28:57.390Z,17.17
2022-10-11T09:31:29.918Z,16.73
2022-10-11T09:34:01.074Z,17.23
2022-10-11T09:36:38.389Z,16.43
2022-10-11T09:39:17.677Z,16.60
2022-10-11T09:41:53.497Z,17.07
2022-10-11T09:44:24.999Z,16.03
2022-10-11T09:46:54.903Z,17.33
2022-10-11T09:49:26.502Z,17.03
2022-10-11T09:51:58.026Z,15.93
2022-10-11T09:54:39.185Z,17.40
2022-10-11T09:57:07.871Z,16.30
2022-10-11T09:59:37.653Z,17.77
2022-10-11T10:02:21.665Z,15.47
2022-10-11T10:04:57.451Z,17.10
2022-10-11T10:07:25.985Z,16.87
2022-10-11T10:09:54.008Z,15.17
2022-10-11T10:12:24.776Z,15.73
2022-10-11T10:15:04.477Z,15.33
2022-10-11T10:17:33.157Z,15.50
2022-10-11T10:20:01.389Z,17.03
2022-10-11T10:22:31.323Z,16.57
2022-10-11T10:25:01.945Z,15.73
2022-10-11T10:27:31.493Z,18.13
2022-10-11T10:30:20.700Z,16.27
2022-10-11T10:32:55.863Z,14.10
2022-10-11T10:35:31.168Z,14.73
2022-10-11T10:38:08.470Z,13.83
2022-10-11T10:40:44.007Z,15.63
2022-10-11T10:43:17.877Z,16.50
2022-10-11T10:46:03.758Z,14.43
2022-10-11T10:49:18.699Z,15.50
2022-10-11T10:51:40.718Z,14.37
2022-10-11T10:54:21.471Z,14.70
2022-10-11T10:56:53.449Z,14.30
2022-10-11T10:59:39.633Z,13.40
2022-10-11T11:02:39.256Z,15.20
2022-10-11T11:05:17.521Z,13.83
2022-10-11T11:07:50.975Z,13.87
2022-10-11T11:10:22.803Z,12.23
2022-10-11T11:12:56.641Z,14.67
2022-10-11T11:15:33.165Z,13.70
2022-10-11T11:18:20.692Z,13.87
2022-10-11T11:21:09.871Z,13.20
2022-10-11T11:23:45.891Z,15.60
2022-10-11T11:26:22.746Z,13.30
2022-10-11T11:29:11.659Z,14.53
2022-10-11T11:32:00.500Z,12.37
2022-10-11T11:34:36.989Z,13.53
2022-10-11T11:37:07.486Z,13.90
2022-10-11T11:39:40.138Z,13.00
2022-10-11T11:42:12.857Z,13.33
2022-10-11T11:44:44.647Z,13.53
2022-10-11T11:47:19.099Z,12.87
2022-10-11T11:49:54.613Z,11.67
2022-10-11T11:52:27.644Z,12.87
2022-10-11T11:55:03.985Z,12.50
2022-10-11T11:57:46.700Z,12.17
2022-10-11T12:00:18.832Z,13.17
2022-10-11T12:02:51.408Z,11.97
2022-10-11T12:05:23.286Z,11.43
2022-10-11T12:07:55.253Z,12.30
2022-10-11T12:10:37.110Z,11.90
2022-10-11T12:13:16.791Z,11.80
2022-10-11T12:15:58.706Z,11.43
2022-10-11T12:18:27.614Z,10.87
2022-10-11T12:21:06.372Z,12.13
2022-10-11T12:23:44.846Z,12.00
2022-10-11T12:26:44.017Z,11.80
2022-10-11T12:29:46.860Z,11.73
2022-10-11T12:32:48.864Z,11.20
2022-10-11T12:36:07.313Z,12.00
2022-10-11T12:38:39.936Z,12.87
2022-10-11T12:41:37.508Z,11.90
2022-10-11T12:44:15.126Z,11.80
2022-10-11T12:46:59.674Z,12.37
2022-10-11T12:49:37.173Z,13.40
2022-10-11T12:52:18.220Z,14.37
2022-10-11T12:55:21.612Z,12.27
2022-10-11T12:58:16.787Z,11.70
2022-10-11T13:01:23.127Z,12.67
2022-10-11T13:03:59.707Z,11.23
2022-10-11T13:06:30.894Z,11.60
2022-10-11T13:09:03.895Z,9.83
2022-10-11T13:11:36.825Z,11.13
2022-10-11T13:14:10.870Z,9.77
2022-10-11T13:17:00.052Z,8.80
2022-10-11T13:19:28.727Z,10.53
2022-10-11T13:21:59.377Z,9.23
2022-10-11T13:24:29.558Z,9.53
2022-10-11T13:26:59.020Z,10.20
2022-10-11T13:29:33.657Z,10.00
2022-10-11T13:32:04.261Z,8.80
2022-10-11T13:34:37.217Z,10.23
2022-10-11T13:37:05.559Z,9.23
2022-10-11T13:39:37.876Z,9.40
2022-10-11T13:42:11.454Z,9.73
2022-10-11T13:44:40.485Z,9.13
2022-10-11T13:47:11.573Z,9.90
2022-10-11T13:49:40.210Z,10.03
2022-10-11T13:52:21.781Z,9.80
2022-10-11T13:55:11.553Z,9.20
2022-10-11T13:57:45.718Z,9.77
2022-10-11T14:00:27.248Z,9.50
2022-10-11T14:02:58.743Z,10.10
2022-10-11T14:05:36.309Z,8.53
2022-10-11T14:08:07.534Z,8.97
2022-10-11T14:10:35.852Z,9.80
2022-10-11T14:13:08.567Z,9.53
2022-10-11T14:15:38.112Z,9.37
2022-10-11T14:18:35.672Z,9.43
2022-10-11T14:21:24.550Z,9.70
2022-10-11T14:23:55.435Z,9.03
2022-10-11T14:26:25.351Z,9.67
2022-10-11T14:28:58.647Z,9.80
2022-10-11T14:31:27.208Z,9.67
2022-10-11T14:33:56.269Z,8.50
2022-10-11T14:36:24.777Z,9.90
2022-10-11T14:38:53.560Z,9.70
2022-10-11T14:41:21.590Z,10.40
2022-10-11T14:43:49.888Z,9.80
2022-10-11T14:46:24.252Z,9.40
2022-10-11T14:48:55.828Z,9.87
2022-10-11T14:51:28.568Z,11.17
2022-10-11T14:53:56.660Z,10.27
2022-10-11T14:56:24.786Z,8.80
2022-10-11T14:58:52.956Z,10.27
2022-10-11T15:01:23.045Z,9.87
2022-10-11T15:03:51.179Z,10.47
2022-10-11T15:06:20.929Z,9.83
2022-10-11T15:08:49.613Z,11.83
2022-10-11T15:11:19.375Z,9.13
2022-10-11T15:13:47.808Z,10.27
2022-10-11T15:16:17.500Z,9.67
2022-10-11T15:18:50.829Z,10.30
2022-10-11T15:21:20.876Z,10.00
2022-10-11T15:23:49.584Z,9.07
2022-10-11T15:26:20.393Z,10.20
2022-10-11T15:28:49.274Z,10.10
2022-10-11T15:31:18.127Z,10.43
2022-10-11T15:33:47.542Z,10.63
2022-10-11T15:36:17.451Z,9.40
2022-10-11T15:38:46.187Z,9.57
2022-10-11T15:41:15.649Z,10.47
2022-10-11T15:43:44.657Z,11.60
2022-10-11T15:46:15.403Z,8.90
2022-10-11T15:48:43.433Z,10.17
2022-10-11T15:51:13.015Z,10.77
2022-10-11T15:53:41.073Z,9.97
2022-10-11T15:56:13.031Z,10.90
2022-10-11T15:58:42.232Z,10.90
2022-10-11T16:01:14.629Z,10.90
2022-10-11T16:03:43.524Z,11.60
2022-10-11T16:06:13.501Z,11.03
2022-10-11T16:08:41.902Z,10.90
2022-10-11T16:11:11.214Z,10.37
2022-10-11T16:13:39.593Z,11.63
2022-10-11T16:16:10.458Z,10.67
2022-10-11T16:18:39.181Z,12.00
2022-10-11T16:21:10.134Z,10.80
2022-10-11T16:23:40.134Z,10.83
2022-10-11T16:26:10.488Z,10.23
2022-10-11T16:28:38.999Z,11.80
2022-10-11T16:31:09.027Z,10.63
2022-10-11T16:33:45.515Z,10.90
2022-10-11T16:36:36.109Z,10.23
2022-10-11T16:39:09.699Z,10.73
2022-10-11T16:41:38.442Z,11.10
2022-10-11T16:44:06.649Z,11.07
2022-10-11T16:46:35.428Z,11.63
2022-10-11T16:49:03.678Z,11.03
2022-10-11T16:51:31.824Z,10.70
2022-10-11T16:54:00.035Z,11.33
2022-10-11T16:56:29.755Z,11.40
2022-10-11T16:58:57.819Z,11.20
2022-10-11T17:01:26.582Z,12.13
2022-10-11T17:03:55.685Z,11.10
2022-10-11T17:06:24.832Z,11.70
2022-10-11T17:08:52.920Z,11.60
2022-10-11T17:11:22.277Z,11.60
2022-10-11T17:13:53.581Z,11.50
2022-10-11T17:16:21.968Z,10.93
2022-10-11T17:18:50.319Z,11.87
2022-10-11T17:21:19.823Z,12.03
2022-10-11T17:23:49.121Z,11.63
2022-10-11T17:26:19.639Z,12.40
2022-10-11T17:28:47.915Z,12.87
2022-10-11T17:31:17.925Z,12.67
2022-10-11T17:33:47.281Z,14.07
2022-10-11T17:36:18.476Z,12.97
2022-10-11T17:38:46.864Z,12.80
2022-10-11T17:41:15.070Z,13.30
2022-10-11T17:43:43.370Z,13.40
2022-10-11T17:46:13.189Z,12.33
2022-10-11T17:48:44.559Z,13.17
2022-10-11T17:51:15.168Z,15.90
2022-10-11T17:53:43.255Z,13.90
2022-10-11T17:56:13.047Z,14.20
2022-10-11T17:58:42.615Z,13.03
2022-10-11T18:01:13.011Z,12.50
2022-10-11T18:03:43.320Z,14.03
2022-10-11T18:06:13.121Z,14.87
2022-10-11T18:08:42.133Z,14.60
2022-10-11T18:11:12.475Z,14.47
2022-10-11T18:13:43.242Z,14.03
2022-10-11T18:16:11.878Z,14.73
2022-10-11T18:18:40.638Z,13.70
2022-10-11T18:21:10.566Z,14.70
2022-10-11T18:23:38.970Z,12.70
2022-10-11T18:26:11.864Z,13.60
2022-10-11T18:28:40.675Z,12.90
2022-10-11T18:31:13.560Z,12.37
2022-10-11T18:33:43.200Z,13.73
2022-10-11T18:36:14.207Z,14.03
2022-10-11T18:38:46.417Z,13.00
2022-10-11T18:41:16.673Z,13.07
2022-10-11T18:43:48.895Z,13.40
2022-10-11T18:46:16.873Z,14.40
2022-10-11T18:48:46.576Z,13.60
2022-10-11T18:51:19.360Z,13.80
2022-10-11T18:53:48.654Z,13.83
2022-10-11T18:56:20.569Z,14.07
2022-10-11T18:58:49.902Z,14.50
2022-10-11T19:01:19.923Z,14.40
2022-10-11T19:03:49.871Z,13.83
2022-10-11T19:06:20.917Z,13.53
2022-10-11T19:08:50.299Z,14.53
2022-10-11T19:11:21.592Z,13.60
2022-10-11T19:13:55.061Z,13.87
2022-10-11T19:16:23.416Z,13.57
2022-10-11T19:18:52.532Z,14.10
2022-10-11T19:21:22.043Z,15.80
2022-10-11T19:23:50.906Z,13.07
2022-10-11T19:26:21.016Z,13.30
2022-10-11T19:28:49.818Z,13.80
2022-10-11T19:31:17.978Z,15.07
2022-10-11T19:33:49.378Z,15.70
2022-10-11T19:36:18.268Z,14.73
2022-10-11T19:38:49.908Z,14.63
2022-10-11T19:41:19.858Z,14.37
2022-10-11T19:43:47.974Z,15.20
2022-10-11T19:46:37.876Z,13.47
2022-10-11T19:49:07.306Z,14.13
2022-10-11T19:51:35.711Z,14.37
2022-10-11T19:54:07.438Z,14.40
2022-10-11T19:56:36.650Z,15.87
2022-10-11T19:59:06.475Z,14.43
2022-10-11T20:01:36.258Z,15.10
2022-10-11T20:04:07.394Z,15.87
2022-10-11T20:06:38.639Z,14.00
2022-10-11T20:11:56.768Z,14.20
2022-10-11T20:14:25.170Z,15.53
2022-10-11T20:16:53.356Z,14.20
2022-10-11T20:19:27.709Z,14.03
2022-10-11T20:21:58.308Z,15.00
2022-10-11T20:24:32.117Z,14.50
2022-10-11T20:27:00.147Z,14.93
2022-10-11T20:29:28.334Z,15.57
2022-10-11T20:31:58.824Z,14.80
2022-10-11T20:34:27.621Z,14.33
2022-10-11T20:36:55.692Z,14.97
2022-10-11T20:39:23.723Z,15.97
2022-10-11T20:41:53.120Z,17.07
2022-10-11T20:44:21.179Z,15.20
2022-10-11T20:46:49.144Z,15.47
2022-10-11T20:49:19.683Z,16.77
2022-10-11T20:51:47.674Z,14.10
2022-10-11T20:54:16.044Z,16.80
2022-10-11T20:56:44.197Z,14.97
2022-10-11T20:59:13.584Z,15.60
2022-10-11T21:01:42.720Z,15.13
2022-10-11T21:04:18.381Z,16.57
2022-10-11T21:06:46.937Z,15.93
2022-10-11T21:09:16.682Z,14.77
2022-10-11T21:11:45.368Z,13.63
2022-10-11T21:14:15.082Z,15.27
2022-10-11T21:16:43.204Z,15.03
2022-10-11T21:19:16.357Z,14.73
2022-10-11T21:21:49.678Z,14.30
2022-10-11T21:24:21.851Z,15.70
2022-10-11T21:26:49.850Z,15.67
2022-10-11T21:29:19.384Z,16.30
2022-10-11T21:31:47.361Z,15.50
2022-10-11T21:34:15.563Z,16.30
2022-10-11T21:36:43.535Z,15.00
2022-10-11T21:39:11.558Z,14.67
2022-10-11T21:41:42.056Z,15.10
2022-10-11T21:44:10.088Z,14.70
2022-10-11T21:47:05.550Z,16.30
2022-10-11T21:49:27.369Z,15.73
2022-10-11T21:51:55.331Z,15.37
2022-10-11T21:54:23.313Z,14.77
2022-10-11T21:56:51.300Z,16.17
2022-10-11T21:59:19.315Z,15.33
2022-10-11T22:01:48.722Z,16.00
2022-10-11T22:04:17.859Z,14.33
2022-10-11T22:06:45.863Z,14.93
2022-10-11T22:09:13.872Z,15.40
2022-10-11T22:11:41.835Z,14.37
2022-10-11T22:14:09.878Z,16.27
2022-10-11T22:16:37.880Z,15.83
2022-10-11T22:19:07.247Z,16.00
2022-10-11T22:21:35.225Z,14.17
2022-10-11T22:24:03.263Z,15.87
2022-10-11T22:26:32.106Z,15.37
2022-10-11T22:29:00.834Z,15.10
2022-10-11T22:31:29.805Z,17.40
2022-10-11T22:33:59.616Z,17.87
2022-10-11T22:36:30.426Z,14.93
2022-10-11T22:38:59.086Z,14.50
2022-10-11T22:41:27.109Z,15.60
2022-10-11T22:43:55.053Z,16.43
2022-10-11T22:46:23.034Z,17.03
2022-10-11T22:48:51.033Z,14.57
2022-10-11T22:51:19.078Z,15.50
2022-10-11T22:53:48.548Z,14.93
2022-10-11T22:56:16.766Z,14.80
2022-10-11T22:58:44.784Z,15.17
2022-10-11T23:01:14.802Z,15.67
2022-10-11T23:03:43.509Z,15.57
2022-10-11T23:06:11.608Z,15.10
2022-10-11T23:08:39.569Z,17.00
2022-10-11T23:11:09.351Z,15.87
2022-10-11T23:13:37.828Z,15.43
2022-10-11T23:16:09.822Z,14.40
2022-10-11T23:18:38.512Z,15.13
2022-10-11T23:21:07.367Z,17.20
2022-10-11T23:23:35.478Z,15.97
2022-10-11T23:26:09.582Z,15.93
2022-10-11T23:28:38.113Z,15.70
2022-10-11T23:31:10.972Z,15.63
2022-10-11T23:33:39.062Z,16.20
2022-10-11T23:36:07.827Z,15.67
2022-10-11T23:38:35.796Z,16.70
2022-10-11T23:41:03.889Z,16.07
2022-10-11T23:43:33.186Z,17.57
2022-10-11T23:46:01.218Z,17.70
2022-10-11T23:48:29.214Z,17.30
2022-10-11T23:50:57.191Z,17.27
2022-10-11T23:53:25.246Z,17.33
2022-10-11T23:55:53.287Z,17.13
2022-10-11T23:58:21.299Z,16.77
